sensor_id;sensor_type;location;lat;lon;timestamp;P1;durP1;ratioP1;P2;durP2;ratioP2
19016;SDS011;9641;51.494;6.670;2023-06-22T00:01:17;12.15;;;6.72;;
19016;SDS011;9641;51.494;6.670;2023-06-22T00:03:44;11.15;;;5.95;;
19016;SDS011;9641;51.494;6.670;2023-06-22T00:06:12;8.70;;;5.95;;
19016;SDS011;9641;51.494;6.670;2023-06-22T00:08:39;8.43;;;6.43;;
19016;SDS011;9641;51.494;6.670;2023-06-22T00:11:06;9.02;;;6.13;;
19016;SDS011;9641;51.494;6.670;2023-06-22T00:13:33;8.75;;;6.40;;
19016;SDS011;9641;51.494;6.670;2023-06-22T00:16:00;8.88;;;5.35;;
19016;SDS011;9641;51.494;6.670;2023-06-22T00:18:27;7.93;;;5.70;;
19016;SDS011;9641;51.494;6.670;2023-06-22T00:20:55;7.55;;;4.85;;
19016;SDS011;9641;51.494;6.670;2023-06-22T00:23:26;6.70;;;5.03;;
19016;SDS011;9641;51.494;6.670;2023-06-22T00:25:53;6.97;;;5.00;;
19016;SDS011;9641;51.494;6.670;2023-06-22T00:28:21;11.18;;;5.95;;
19016;SDS011;9641;51.494;6.670;2023-06-22T00:30:48;7.03;;;5.50;;
19016;SDS011;9641;51.494;6.670;2023-06-22T00:33:15;7.00;;;5.47;;
19016;SDS011;9641;51.494;6.670;2023-06-22T00:35:42;7.65;;;5.95;;
19016;SDS011;9641;51.494;6.670;2023-06-22T00:38:08;7.63;;;5.70;;
19016;SDS011;9641;51.494;6.670;2023-06-22T00:40:37;7.68;;;5.28;;
19016;SDS011;9641;51.494;6.670;2023-06-22T00:43:04;8.20;;;5.93;;
19016;SDS011;9641;51.494;6.670;2023-06-22T00:45:31;10.48;;;5.63;;
19016;SDS011;9641;51.494;6.670;2023-06-22T00:47:59;6.57;;;5.15;;
19016;SDS011;9641;51.494;6.670;2023-06-22T00:50:26;8.15;;;5.60;;
19016;SDS011;9641;51.494;6.670;2023-06-22T00:52:59;9.27;;;5.53;;
19016;SDS011;9641;51.494;6.670;2023-06-22T00:55:29;9.23;;;5.57;;
19016;SDS011;9641;51.494;6.670;2023-06-22T00:57:57;8.35;;;5.70;;
19016;SDS011;9641;51.494;6.670;2023-06-22T01:00:24;7.75;;;5.95;;
19016;SDS011;9641;51.494;6.670;2023-06-22T01:02:52;7.22;;;5.00;;
19016;SDS011;9641;51.494;6.670;2023-06-22T01:05:19;7.68;;;5.43;;
19016;SDS011;9641;51.494;6.670;2023-06-22T01:07:51;9.20;;;5.88;;
19016;SDS011;9641;51.494;6.670;2023-06-22T01:10:25;9.50;;;6.07;;
19016;SDS011;9641;51.494;6.670;2023-06-22T01:12:58;7.88;;;6.38;;
19016;SDS011;9641;51.494;6.670;2023-06-22T01:15:28;6.57;;;5.50;;
19016;SDS011;9641;51.494;6.670;2023-06-22T01:17:58;8.15;;;6.38;;
19016;SDS011;9641;51.494;6.670;2023-06-22T01:20:28;9.05;;;6.07;;
19016;SDS011;9641;51.494;6.670;2023-06-22T01:23:02;8.77;;;6.60;;
19016;SDS011;9641;51.494;6.670;2023-06-22T01:25:36;10.23;;;6.82;;
19016;SDS011;9641;51.494;6.670;2023-06-22T01:28:16;8.35;;;6.60;;
19016;SDS011;9641;51.494;6.670;2023-06-22T01:30:52;8.05;;;6.07;;
19016;SDS011;9641;51.494;6.670;2023-06-22T01:33:28;9.95;;;6.93;;
19016;SDS011;9641;51.494;6.670;2023-06-22T01:35:57;9.05;;;7.10;;
19016;SDS011;9641;51.494;6.670;2023-06-22T01:38:24;10.43;;;8.60;;
19016;SDS011;9641;51.494;6.670;2023-06-22T01:40:52;9.60;;;7.72;;
19016;SDS011;9641;51.494;6.670;2023-06-22T01:43:20;11.20;;;7.47;;
19016;SDS011;9641;51.494;6.670;2023-06-22T01:45:49;11.25;;;7.32;;
19016;SDS011;9641;51.494;6.670;2023-06-22T01:48:18;13.02;;;8.88;;
19016;SDS011;9641;51.494;6.670;2023-06-22T01:50:46;8.45;;;7.53;;
19016;SDS011;9641;51.494;6.670;2023-06-22T01:53:13;7.95;;;7.10;;
19016;SDS011;9641;51.494;6.670;2023-06-22T01:55:40;7.25;;;6.13;;
19016;SDS011;9641;51.494;6.670;2023-06-22T01:58:07;9.43;;;7.00;;
19016;SDS011;9641;51.494;6.670;2023-06-22T02:00:35;10.90;;;8.02;;
19016;SDS011;9641;51.494;6.670;2023-06-22T02:03:08;9.93;;;7.95;;
19016;SDS011;9641;51.494;6.670;2023-06-22T02:05:39;10.95;;;7.40;;
19016;SDS011;9641;51.494;6.670;2023-06-22T02:08:21;9.75;;;7.40;;
19016;SDS011;9641;51.494;6.670;2023-06-22T02:10:51;10.30;;;7.72;;
19016;SDS011;9641;51.494;6.670;2023-06-22T02:13:20;15.45;;;8.52;;
19016;SDS011;9641;51.494;6.670;2023-06-22T02:15:48;10.57;;;8.63;;
19016;SDS011;9641;51.494;6.670;2023-06-22T02:18:17;11.20;;;8.60;;
19016;SDS011;9641;51.494;6.670;2023-06-22T02:20:45;11.57;;;9.57;;
19016;SDS011;9641;51.494;6.670;2023-06-22T02:23:13;10.52;;;9.18;;
19016;SDS011;9641;51.494;6.670;2023-06-22T02:25:40;12.80;;;8.60;;
19016;SDS011;9641;51.494;6.670;2023-06-22T02:28:09;12.10;;;9.40;;
19016;SDS011;9641;51.494;6.670;2023-06-22T02:30:37;11.05;;;8.77;;
19016;SDS011;9641;51.494;6.670;2023-06-22T02:33:06;11.23;;;9.00;;
19016;SDS011;9641;51.494;6.670;2023-06-22T02:35:34;13.10;;;9.63;;
19016;SDS011;9641;51.494;6.670;2023-06-22T02:38:02;11.90;;;9.85;;
19016;SDS011;9641;51.494;6.670;2023-06-22T02:40:29;14.43;;;10.15;;
19016;SDS011;9641;51.494;6.670;2023-06-22T02:42:57;14.10;;;9.82;;
19016;SDS011;9641;51.494;6.670;2023-06-22T02:45:26;17.17;;;10.68;;
19016;SDS011;9641;51.494;6.670;2023-06-22T02:47:53;14.27;;;10.07;;
19016;SDS011;9641;51.494;6.670;2023-06-22T02:50:21;13.75;;;10.48;;
19016;SDS011;9641;51.494;6.670;2023-06-22T02:52:49;13.63;;;10.23;;
19016;SDS011;9641;51.494;6.670;2023-06-22T02:55:16;13.55;;;10.45;;
19016;SDS011;9641;51.494;6.670;2023-06-22T02:57:51;12.52;;;9.73;;
19016;SDS011;9641;51.494;6.670;2023-06-22T03:00:19;13.32;;;9.38;;
19016;SDS011;9641;51.494;6.670;2023-06-22T03:02:48;10.23;;;8.80;;
19016;SDS011;9641;51.494;6.670;2023-06-22T03:05:16;14.20;;;10.68;;
19016;SDS011;9641;51.494;6.670;2023-06-22T03:07:44;11.63;;;10.35;;
19016;SDS011;9641;51.494;6.670;2023-06-22T03:10:13;10.90;;;9.40;;
19016;SDS011;9641;51.494;6.670;2023-06-22T03:12:41;12.35;;;9.20;;
19016;SDS011;9641;51.494;6.670;2023-06-22T03:15:10;12.35;;;9.88;;
19016;SDS011;9641;51.494;6.670;2023-06-22T03:17:38;14.70;;;10.65;;
19016;SDS011;9641;51.494;6.670;2023-06-22T03:20:07;13.75;;;10.88;;
19016;SDS011;9641;51.494;6.670;2023-06-22T03:22:36;16.40;;;11.80;;
19016;SDS011;9641;51.494;6.670;2023-06-22T03:25:04;15.52;;;11.90;;
19016;SDS011;9641;51.494;6.670;2023-06-22T03:27:38;15.82;;;11.75;;
19016;SDS011;9641;51.494;6.670;2023-06-22T03:30:07;13.27;;;10.88;;
19016;SDS011;9641;51.494;6.670;2023-06-22T03:32:35;13.55;;;10.13;;
19016;SDS011;9641;51.494;6.670;2023-06-22T03:35:04;14.23;;;10.98;;
19016;SDS011;9641;51.494;6.670;2023-06-22T03:37:34;15.95;;;11.82;;
19016;SDS011;9641;51.494;6.670;2023-06-22T03:40:01;18.40;;;12.90;;
19016;SDS011;9641;51.494;6.670;2023-06-22T03:42:30;16.40;;;12.43;;
19016;SDS011;9641;51.494;6.670;2023-06-22T03:44:58;19.25;;;11.90;;
19016;SDS011;9641;51.494;6.670;2023-06-22T03:47:26;16.23;;;12.77;;
19016;SDS011;9641;51.494;6.670;2023-06-22T03:49:53;17.83;;;13.10;;
19016;SDS011;9641;51.494;6.670;2023-06-22T03:52:20;15.68;;;13.07;;
19016;SDS011;9641;51.494;6.670;2023-06-22T03:54:47;17.38;;;13.00;;
19016;SDS011;9641;51.494;6.670;2023-06-22T03:57:14;17.23;;;13.80;;
19016;SDS011;9641;51.494;6.670;2023-06-22T03:59:41;16.33;;;12.93;;
19016;SDS011;9641;51.494;6.670;2023-06-22T04:02:10;15.63;;;12.68;;
19016;SDS011;9641;51.494;6.670;2023-06-22T04:04:38;17.05;;;11.80;;
19016;SDS011;9641;51.494;6.670;2023-06-22T04:07:05;14.52;;;10.85;;
19016;SDS011;9641;51.494;6.670;2023-06-22T04:09:31;12.85;;;10.90;;
19016;SDS011;9641;51.494;6.670;2023-06-22T04:11:58;15.93;;;11.82;;
19016;SDS011;9641;51.494;6.670;2023-06-22T04:14:25;14.80;;;11.30;;
19016;SDS011;9641;51.494;6.670;2023-06-22T04:16:52;15.82;;;11.10;;
19016;SDS011;9641;51.494;6.670;2023-06-22T04:19:20;14.07;;;11.20;;
19016;SDS011;9641;51.494;6.670;2023-06-22T04:21:47;13.50;;;11.65;;
19016;SDS011;9641;51.494;6.670;2023-06-22T04:24:14;16.83;;;12.48;;
19016;SDS011;9641;51.494;6.670;2023-06-22T04:26:41;13.80;;;11.73;;
19016;SDS011;9641;51.494;6.670;2023-06-22T04:29:10;16.40;;;13.68;;
19016;SDS011;9641;51.494;6.670;2023-06-22T04:31:37;15.45;;;12.90;;
19016;SDS011;9641;51.494;6.670;2023-06-22T04:34:04;16.67;;;13.35;;
19016;SDS011;9641;51.494;6.670;2023-06-22T04:36:35;19.50;;;13.57;;
19016;SDS011;9641;51.494;6.670;2023-06-22T04:39:04;18.75;;;13.55;;
19016;SDS011;9641;51.494;6.670;2023-06-22T04:41:32;17.98;;;13.45;;
19016;SDS011;9641;51.494;6.670;2023-06-22T04:44:07;17.10;;;13.57;;
19016;SDS011;9641;51.494;6.670;2023-06-22T04:46:35;22.27;;;13.75;;
19016;SDS011;9641;51.494;6.670;2023-06-22T04:49:03;15.38;;;13.40;;
19016;SDS011;9641;51.494;6.670;2023-06-22T04:51:38;18.50;;;13.63;;
19016;SDS011;9641;51.494;6.670;2023-06-22T04:54:06;19.05;;;13.23;;
19016;SDS011;9641;51.494;6.670;2023-06-22T04:56:33;17.55;;;12.73;;
19016;SDS011;9641;51.494;6.670;2023-06-22T04:59:00;20.30;;;15.68;;
19016;SDS011;9641;51.494;6.670;2023-06-22T05:01:28;15.32;;;13.70;;
19016;SDS011;9641;51.494;6.670;2023-06-22T05:03:56;19.58;;;15.50;;
19016;SDS011;9641;51.494;6.670;2023-06-22T05:06:26;18.90;;;13.18;;
19016;SDS011;9641;51.494;6.670;2023-06-22T05:08:55;16.88;;;13.02;;
19016;SDS011;9641;51.494;6.670;2023-06-22T05:11:23;19.58;;;13.85;;
19016;SDS011;9641;51.494;6.670;2023-06-22T05:13:50;17.30;;;13.85;;
19016;SDS011;9641;51.494;6.670;2023-06-22T05:16:17;17.02;;;13.98;;
19016;SDS011;9641;51.494;6.670;2023-06-22T05:18:49;17.45;;;13.30;;
19016;SDS011;9641;51.494;6.670;2023-06-22T05:21:18;18.02;;;14.40;;
19016;SDS011;9641;51.494;6.670;2023-06-22T05:23:47;19.13;;;13.43;;
19016;SDS011;9641;51.494;6.670;2023-06-22T05:26:15;20.25;;;13.90;;
19016;SDS011;9641;51.494;6.670;2023-06-22T05:28:42;17.60;;;13.52;;
19016;SDS011;9641;51.494;6.670;2023-06-22T05:31:11;17.00;;;13.82;;
19016;SDS011;9641;51.494;6.670;2023-06-22T05:33:38;18.38;;;13.73;;
19016;SDS011;9641;51.494;6.670;2023-06-22T05:36:05;17.48;;;14.25;;
19016;SDS011;9641;51.494;6.670;2023-06-22T05:38:32;17.27;;;12.18;;
19016;SDS011;9641;51.494;6.670;2023-06-22T05:40:59;18.58;;;14.10;;
19016;SDS011;9641;51.494;6.670;2023-06-22T05:43:27;16.60;;;13.18;;
19016;SDS011;9641;51.494;6.670;2023-06-22T05:45:55;20.20;;;14.60;;
19016;SDS011;9641;51.494;6.670;2023-06-22T05:48:22;20.77;;;13.98;;
19016;SDS011;9641;51.494;6.670;2023-06-22T05:50:49;18.25;;;13.30;;
19016;SDS011;9641;51.494;6.670;2023-06-22T05:53:16;15.32;;;13.70;;
19016;SDS011;9641;51.494;6.670;2023-06-22T05:55:43;17.80;;;13.55;;
19016;SDS011;9641;51.494;6.670;2023-06-22T05:58:10;18.10;;;13.45;;
19016;SDS011;9641;51.494;6.670;2023-06-22T06:00:39;20.15;;;14.63;;
19016;SDS011;9641;51.494;6.670;2023-06-22T06:03:09;18.92;;;14.70;;
19016;SDS011;9641;51.494;6.670;2023-06-22T06:05:36;20.60;;;15.65;;
19016;SDS011;9641;51.494;6.670;2023-06-22T06:08:04;18.50;;;14.85;;
19016;SDS011;9641;51.494;6.670;2023-06-22T06:10:32;20.80;;;15.85;;
19016;SDS011;9641;51.494;6.670;2023-06-22T06:12:59;20.60;;;16.00;;
19016;SDS011;9641;51.494;6.670;2023-06-22T06:15:29;19.33;;;15.20;;
19016;SDS011;9641;51.494;6.670;2023-06-22T06:17:57;23.60;;;17.45;;
19016;SDS011;9641;51.494;6.670;2023-06-22T06:20:25;26.63;;;19.02;;
19016;SDS011;9641;51.494;6.670;2023-06-22T06:22:53;27.60;;;19.23;;
19016;SDS011;9641;51.494;6.670;2023-06-22T06:25:20;31.40;;;20.83;;
19016;SDS011;9641;51.494;6.670;2023-06-22T06:27:49;27.25;;;18.27;;
19016;SDS011;9641;51.494;6.670;2023-06-22T06:30:20;31.48;;;20.58;;
19016;SDS011;9641;51.494;6.670;2023-06-22T06:32:47;26.08;;;19.48;;
19016;SDS011;9641;51.494;6.670;2023-06-22T06:35:16;27.02;;;19.63;;
19016;SDS011;9641;51.494;6.670;2023-06-22T06:37:44;24.30;;;17.65;;
19016;SDS011;9641;51.494;6.670;2023-06-22T06:40:14;24.92;;;19.35;;
19016;SDS011;9641;51.494;6.670;2023-06-22T06:42:41;28.08;;;20.63;;
19016;SDS011;9641;51.494;6.670;2023-06-22T06:45:10;22.33;;;18.23;;
19016;SDS011;9641;51.494;6.670;2023-06-22T06:47:38;25.58;;;19.33;;
19016;SDS011;9641;51.494;6.670;2023-06-22T06:50:05;23.98;;;18.85;;
19016;SDS011;9641;51.494;6.670;2023-06-22T06:52:34;23.52;;;18.25;;
19016;SDS011;9641;51.494;6.670;2023-06-22T06:55:01;28.00;;;19.02;;
19016;SDS011;9641;51.494;6.670;2023-06-22T06:57:29;24.38;;;18.60;;
19016;SDS011;9641;51.494;6.670;2023-06-22T06:59:59;26.60;;;18.23;;
19016;SDS011;9641;51.494;6.670;2023-06-22T07:02:27;21.70;;;18.60;;
19016;SDS011;9641;51.494;6.670;2023-06-22T07:04:54;24.23;;;19.27;;
19016;SDS011;9641;51.494;6.670;2023-06-22T07:07:21;19.73;;;16.70;;
19016;SDS011;9641;51.494;6.670;2023-06-22T07:09:49;22.25;;;17.90;;
19016;SDS011;9641;51.494;6.670;2023-06-22T07:12:17;25.48;;;17.70;;
19016;SDS011;9641;51.494;6.670;2023-06-22T07:14:43;22.10;;;16.83;;
19016;SDS011;9641;51.494;6.670;2023-06-22T07:17:10;24.00;;;18.67;;
19016;SDS011;9641;51.494;6.670;2023-06-22T07:19:37;20.80;;;17.30;;
19016;SDS011;9641;51.494;6.670;2023-06-22T07:22:04;19.55;;;15.73;;
19016;SDS011;9641;51.494;6.670;2023-06-22T07:24:31;24.77;;;17.40;;
19016;SDS011;9641;51.494;6.670;2023-06-22T07:27:00;22.05;;;17.17;;
19016;SDS011;9641;51.494;6.670;2023-06-22T07:29:28;22.17;;;17.25;;
19016;SDS011;9641;51.494;6.670;2023-06-22T07:31:54;21.45;;;17.55;;
19016;SDS011;9641;51.494;6.670;2023-06-22T07:34:22;24.15;;;19.35;;
19016;SDS011;9641;51.494;6.670;2023-06-22T07:36:49;20.02;;;16.17;;
19016;SDS011;9641;51.494;6.670;2023-06-22T07:39:16;21.83;;;16.52;;
19016;SDS011;9641;51.494;6.670;2023-06-22T07:41:43;23.17;;;18.02;;
19016;SDS011;9641;51.494;6.670;2023-06-22T07:44:11;20.77;;;17.13;;
19016;SDS011;9641;51.494;6.670;2023-06-22T07:46:38;20.77;;;17.10;;
19016;SDS011;9641;51.494;6.670;2023-06-22T07:49:04;22.17;;;17.15;;
19016;SDS011;9641;51.494;6.670;2023-06-22T07:51:33;23.55;;;18.58;;
19016;SDS011;9641;51.494;6.670;2023-06-22T07:54:00;23.73;;;17.85;;
19016;SDS011;9641;51.494;6.670;2023-06-22T07:56:27;28.92;;;20.10;;
19016;SDS011;9641;51.494;6.670;2023-06-22T07:58:53;23.58;;;18.98;;
19016;SDS011;9641;51.494;6.670;2023-06-22T08:01:24;22.33;;;17.70;;
19016;SDS011;9641;51.494;6.670;2023-06-22T08:03:51;24.58;;;19.60;;
19016;SDS011;9641;51.494;6.670;2023-06-22T08:06:18;23.20;;;20.13;;
19016;SDS011;9641;51.494;6.670;2023-06-22T08:08:45;20.98;;;17.75;;
19016;SDS011;9641;51.494;6.670;2023-06-22T08:11:13;21.67;;;17.33;;
19016;SDS011;9641;51.494;6.670;2023-06-22T08:13:39;23.58;;;18.73;;
19016;SDS011;9641;51.494;6.670;2023-06-22T08:16:06;23.10;;;17.92;;
19016;SDS011;9641;51.494;6.670;2023-06-22T08:18:35;22.38;;;17.95;;
19016;SDS011;9641;51.494;6.670;2023-06-22T08:21:01;26.75;;;19.88;;
19016;SDS011;9641;51.494;6.670;2023-06-22T08:23:29;24.00;;;19.20;;
19016;SDS011;9641;51.494;6.670;2023-06-22T08:25:55;23.67;;;19.40;;
19016;SDS011;9641;51.494;6.670;2023-06-22T08:28:22;25.17;;;17.58;;
19016;SDS011;9641;51.494;6.670;2023-06-22T08:30:50;27.05;;;20.83;;
19016;SDS011;9641;51.494;6.670;2023-06-22T08:33:16;26.92;;;19.35;;
19016;SDS011;9641;51.494;6.670;2023-06-22T08:35:45;24.38;;;19.63;;
19016;SDS011;9641;51.494;6.670;2023-06-22T08:38:12;25.60;;;19.48;;
19016;SDS011;9641;51.494;6.670;2023-06-22T08:40:40;23.73;;;19.48;;
19016;SDS011;9641;51.494;6.670;2023-06-22T08:43:07;23.65;;;19.40;;
19016;SDS011;9641;51.494;6.670;2023-06-22T08:45:34;23.48;;;19.70;;
19016;SDS011;9641;51.494;6.670;2023-06-22T08:48:01;26.25;;;19.92;;
19016;SDS011;9641;51.494;6.670;2023-06-22T08:50:28;25.08;;;19.05;;
19016;SDS011;9641;51.494;6.670;2023-06-22T08:52:56;28.80;;;18.70;;
19016;SDS011;9641;51.494;6.670;2023-06-22T08:55:23;25.08;;;19.77;;
19016;SDS011;9641;51.494;6.670;2023-06-22T08:57:50;20.27;;;17.08;;
19016;SDS011;9641;51.494;6.670;2023-06-22T09:00:17;23.50;;;18.80;;
19016;SDS011;9641;51.494;6.670;2023-06-22T09:02:45;21.58;;;17.70;;
19016;SDS011;9641;51.494;6.670;2023-06-22T09:05:13;25.45;;;18.70;;
19016;SDS011;9641;51.494;6.670;2023-06-22T09:07:40;22.88;;;18.52;;
19016;SDS011;9641;51.494;6.670;2023-06-22T09:10:11;23.35;;;18.27;;
19016;SDS011;9641;51.494;6.670;2023-06-22T09:12:39;21.08;;;18.15;;
19016;SDS011;9641;51.494;6.670;2023-06-22T09:15:06;24.20;;;20.42;;
19016;SDS011;9641;51.494;6.670;2023-06-22T09:17:33;26.45;;;17.75;;
19016;SDS011;9641;51.494;6.670;2023-06-22T09:20:02;23.15;;;18.98;;
19016;SDS011;9641;51.494;6.670;2023-06-22T09:22:30;20.80;;;17.00;;
19016;SDS011;9641;51.494;6.670;2023-06-22T09:24:58;24.38;;;19.08;;
19016;SDS011;9641;51.494;6.670;2023-06-22T09:27:27;23.05;;;18.67;;
19016;SDS011;9641;51.494;6.670;2023-06-22T09:29:54;21.60;;;16.65;;
19016;SDS011;9641;51.494;6.670;2023-06-22T09:32:23;23.85;;;18.98;;
19016;SDS011;9641;51.494;6.670;2023-06-22T09:34:50;24.17;;;19.92;;
19016;SDS011;9641;51.494;6.670;2023-06-22T09:37:18;20.90;;;16.73;;
19016;SDS011;9641;51.494;6.670;2023-06-22T09:39:45;24.75;;;19.77;;
19016;SDS011;9641;51.494;6.670;2023-06-22T09:42:12;20.83;;;16.63;;
19016;SDS011;9641;51.494;6.670;2023-06-22T09:44:40;23.75;;;17.42;;
19016;SDS011;9641;51.494;6.670;2023-06-22T09:47:08;20.40;;;16.83;;
19016;SDS011;9641;51.494;6.670;2023-06-22T09:49:35;19.83;;;15.98;;
19016;SDS011;9641;51.494;6.670;2023-06-22T09:52:02;21.02;;;15.30;;
19016;SDS011;9641;51.494;6.670;2023-06-22T09:54:29;22.45;;;17.85;;
19016;SDS011;9641;51.494;6.670;2023-06-22T09:56:56;22.08;;;16.92;;
19016;SDS011;9641;51.494;6.670;2023-06-22T09:59:23;18.70;;;16.52;;
19016;SDS011;9641;51.494;6.670;2023-06-22T10:01:52;21.08;;;17.52;;
19016;SDS011;9641;51.494;6.670;2023-06-22T10:04:19;19.25;;;15.20;;
19016;SDS011;9641;51.494;6.670;2023-06-22T10:06:46;19.45;;;15.90;;
19016;SDS011;9641;51.494;6.670;2023-06-22T10:09:13;20.25;;;16.40;;
19016;SDS011;9641;51.494;6.670;2023-06-22T10:11:40;18.85;;;15.73;;
19016;SDS011;9641;51.494;6.670;2023-06-22T10:14:06;19.58;;;15.38;;
19016;SDS011;9641;51.494;6.670;2023-06-22T10:16:35;19.38;;;15.27;;
19016;SDS011;9641;51.494;6.670;2023-06-22T10:19:04;21.02;;;16.42;;
19016;SDS011;9641;51.494;6.670;2023-06-22T10:21:31;20.38;;;15.73;;
19016;SDS011;9641;51.494;6.670;2023-06-22T10:23:58;19.20;;;14.75;;
19016;SDS011;9641;51.494;6.670;2023-06-22T10:26:30;21.55;;;15.48;;
19016;SDS011;9641;51.494;6.670;2023-06-22T10:28:57;18.10;;;15.95;;
19016;SDS011;9641;51.494;6.670;2023-06-22T10:31:24;19.65;;;15.98;;
19016;SDS011;9641;51.494;6.670;2023-06-22T10:33:52;19.98;;;14.52;;
19016;SDS011;9641;51.494;6.670;2023-06-22T10:36:21;16.50;;;14.80;;
19016;SDS011;9641;51.494;6.670;2023-06-22T10:38:48;16.55;;;14.48;;
19016;SDS011;9641;51.494;6.670;2023-06-22T10:41:18;15.77;;;12.60;;
19016;SDS011;9641;51.494;6.670;2023-06-22T10:43:45;16.70;;;14.23;;
19016;SDS011;9641;51.494;6.670;2023-06-22T10:46:12;15.63;;;13.18;;
19016;SDS011;9641;51.494;6.670;2023-06-22T10:48:39;17.90;;;14.38;;
19016;SDS011;9641;51.494;6.670;2023-06-22T10:51:06;15.70;;;12.93;;
19016;SDS011;9641;51.494;6.670;2023-06-22T10:53:34;17.92;;;15.00;;
19016;SDS011;9641;51.494;6.670;2023-06-22T10:56:01;18.23;;;13.70;;
19016;SDS011;9641;51.494;6.670;2023-06-22T10:58:28;18.63;;;13.70;;
19016;SDS011;9641;51.494;6.670;2023-06-22T11:00:55;16.48;;;14.60;;
19016;SDS011;9641;51.494;6.670;2023-06-22T11:03:22;16.27;;;14.38;;
19016;SDS011;9641;51.494;6.670;2023-06-22T11:05:49;18.40;;;15.65;;
19016;SDS011;9641;51.494;6.670;2023-06-22T11:08:16;17.40;;;14.52;;
19016;SDS011;9641;51.494;6.670;2023-06-22T11:10:44;18.13;;;15.48;;
19016;SDS011;9641;51.494;6.670;2023-06-22T11:13:11;15.82;;;12.65;;
19016;SDS011;9641;51.494;6.670;2023-06-22T11:15:38;15.63;;;13.95;;
19016;SDS011;9641;51.494;6.670;2023-06-22T11:18:05;15.70;;;13.90;;
19016;SDS011;9641;51.494;6.670;2023-06-22T11:20:33;18.52;;;16.40;;
19016;SDS011;9641;51.494;6.670;2023-06-22T11:23:03;19.25;;;14.65;;
19016;SDS011;9641;51.494;6.670;2023-06-22T11:25:32;15.70;;;13.25;;
19016;SDS011;9641;51.494;6.670;2023-06-22T11:28:01;22.38;;;16.58;;
19016;SDS011;9641;51.494;6.670;2023-06-22T11:30:29;16.63;;;13.90;;
19016;SDS011;9641;51.494;6.670;2023-06-22T11:32:56;13.38;;;11.98;;
19016;SDS011;9641;51.494;6.670;2023-06-22T11:35:23;19.52;;;16.05;;
19016;SDS011;9641;51.494;6.670;2023-06-22T11:37:50;17.63;;;13.30;;
19016;SDS011;9641;51.494;6.670;2023-06-22T11:40:17;21.17;;;14.18;;
19016;SDS011;9641;51.494;6.670;2023-06-22T11:42:44;19.02;;;15.57;;
19016;SDS011;9641;51.494;6.670;2023-06-22T11:45:12;16.55;;;14.05;;
19016;SDS011;9641;51.494;6.670;2023-06-22T11:47:39;17.45;;;13.70;;
19016;SDS011;9641;51.494;6.670;2023-06-22T11:50:06;18.77;;;15.15;;
19016;SDS011;9641;51.494;6.670;2023-06-22T11:52:34;19.00;;;15.65;;
19016;SDS011;9641;51.494;6.670;2023-06-22T11:55:02;22.65;;;18.05;;
19016;SDS011;9641;51.494;6.670;2023-06-22T11:57:32;26.42;;;19.30;;
19016;SDS011;9641;51.494;6.670;2023-06-22T11:59:59;28.85;;;20.67;;
19016;SDS011;9641;51.494;6.670;2023-06-22T12:02:33;27.40;;;21.08;;
19016;SDS011;9641;51.494;6.670;2023-06-22T12:05:00;21.23;;;17.70;;
19016;SDS011;9641;51.494;6.670;2023-06-22T12:07:29;21.80;;;17.60;;
19016;SDS011;9641;51.494;6.670;2023-06-22T12:09:56;24.40;;;18.15;;
19016;SDS011;9641;51.494;6.670;2023-06-22T12:12:23;25.65;;;19.15;;
19016;SDS011;9641;51.494;6.670;2023-06-22T12:14:50;19.80;;;16.52;;
19016;SDS011;9641;51.494;6.670;2023-06-22T12:17:17;23.75;;;20.77;;
19016;SDS011;9641;51.494;6.670;2023-06-22T12:19:46;27.05;;;21.92;;
19016;SDS011;9641;51.494;6.670;2023-06-22T12:22:12;27.05;;;21.38;;
19016;SDS011;9641;51.494;6.670;2023-06-22T12:24:40;33.05;;;23.17;;
19016;SDS011;9641;51.494;6.670;2023-06-22T12:27:07;23.17;;;19.55;;
19016;SDS011;9641;51.494;6.670;2023-06-22T12:29:35;26.95;;;20.52;;
19016;SDS011;9641;51.494;6.670;2023-06-22T12:32:02;25.70;;;20.52;;
19016;SDS011;9641;51.494;6.670;2023-06-22T12:34:29;22.50;;;17.75;;
19016;SDS011;9641;51.494;6.670;2023-06-22T12:36:58;19.58;;;17.48;;
19016;SDS011;9641;51.494;6.670;2023-06-22T12:39:25;20.52;;;15.40;;
19016;SDS011;9641;51.494;6.670;2023-06-22T12:41:52;18.67;;;16.63;;
19016;SDS011;9641;51.494;6.670;2023-06-22T12:44:19;19.15;;;15.93;;
19016;SDS011;9641;51.494;6.670;2023-06-22T12:46:52;17.50;;;15.55;;
19016;SDS011;9641;51.494;6.670;2023-06-22T12:49:19;18.55;;;16.20;;
19016;SDS011;9641;51.494;6.670;2023-06-22T12:52:11;18.80;;;15.98;;
19016;SDS011;9641;51.494;6.670;2023-06-22T12:54:40;18.80;;;16.02;;
19016;SDS011;9641;51.494;6.670;2023-06-22T12:57:07;18.90;;;15.50;;
19016;SDS011;9641;51.494;6.670;2023-06-22T12:59:44;18.88;;;16.73;;
19016;SDS011;9641;51.494;6.670;2023-06-22T13:02:11;20.50;;;18.10;;
19016;SDS011;9641;51.494;6.670;2023-06-22T13:04:38;21.98;;;18.98;;
19016;SDS011;9641;51.494;6.670;2023-06-22T13:07:05;19.58;;;16.55;;
19016;SDS011;9641;51.494;6.670;2023-06-22T13:09:33;21.40;;;17.77;;
19016;SDS011;9641;51.494;6.670;2023-06-22T13:12:08;17.17;;;15.32;;
19016;SDS011;9641;51.494;6.670;2023-06-22T13:17:44;21.30;;;17.00;;
19016;SDS011;9641;51.494;6.670;2023-06-22T13:20:20;24.13;;;17.33;;
19016;SDS011;9641;51.494;6.670;2023-06-22T13:22:50;20.17;;;15.60;;
19016;SDS011;9641;51.494;6.670;2023-06-22T13:25:18;17.98;;;15.07;;
19016;SDS011;9641;51.494;6.670;2023-06-22T13:27:48;16.73;;;14.35;;
19016;SDS011;9641;51.494;6.670;2023-06-22T13:30:15;22.17;;;17.30;;
19016;SDS011;9641;51.494;6.670;2023-06-22T13:32:44;20.35;;;17.33;;
19016;SDS011;9641;51.494;6.670;2023-06-22T13:35:11;21.75;;;17.42;;
19016;SDS011;9641;51.494;6.670;2023-06-22T13:37:38;22.17;;;18.60;;
19016;SDS011;9641;51.494;6.670;2023-06-22T13:40:06;25.10;;;20.88;;
19016;SDS011;9641;51.494;6.670;2023-06-22T13:42:35;21.88;;;17.45;;
19016;SDS011;9641;51.494;6.670;2023-06-22T13:45:02;26.40;;;21.33;;
19016;SDS011;9641;51.494;6.670;2023-06-22T13:47:30;21.88;;;19.40;;
19016;SDS011;9641;51.494;6.670;2023-06-22T13:49:58;24.70;;;19.13;;
19016;SDS011;9641;51.494;6.670;2023-06-22T13:52:28;24.77;;;20.02;;
19016;SDS011;9641;51.494;6.670;2023-06-22T13:54:56;23.60;;;20.17;;
19016;SDS011;9641;51.494;6.670;2023-06-22T13:57:23;23.45;;;20.70;;
19016;SDS011;9641;51.494;6.670;2023-06-22T13:59:51;22.67;;;19.65;;
19016;SDS011;9641;51.494;6.670;2023-06-22T14:02:18;27.17;;;20.83;;
19016;SDS011;9641;51.494;6.670;2023-06-22T14:04:45;24.83;;;21.00;;
19016;SDS011;9641;51.494;6.670;2023-06-22T14:07:12;25.45;;;21.35;;
19016;SDS011;9641;51.494;6.670;2023-06-22T14:09:39;26.20;;;21.38;;
19016;SDS011;9641;51.494;6.670;2023-06-22T14:12:06;24.42;;;20.73;;
19016;SDS011;9641;51.494;6.670;2023-06-22T14:14:34;23.92;;;20.33;;
19016;SDS011;9641;51.494;6.670;2023-06-22T14:17:02;26.85;;;21.17;;
19016;SDS011;9641;51.494;6.670;2023-06-22T14:19:30;26.00;;;21.73;;
19016;SDS011;9641;51.494;6.670;2023-06-22T14:21:57;27.10;;;23.08;;
19016;SDS011;9641;51.494;6.670;2023-06-22T14:24:24;24.27;;;21.45;;
19016;SDS011;9641;51.494;6.670;2023-06-22T14:26:51;30.20;;;24.55;;
19016;SDS011;9641;51.494;6.670;2023-06-22T14:29:18;27.40;;;23.73;;
19016;SDS011;9641;51.494;6.670;2023-06-22T14:31:45;29.60;;;25.08;;
19016;SDS011;9641;51.494;6.670;2023-06-22T14:34:14;29.83;;;24.80;;
19016;SDS011;9641;51.494;6.670;2023-06-22T14:36:41;25.35;;;21.50;;
19016;SDS011;9641;51.494;6.670;2023-06-22T14:39:08;30.30;;;23.58;;
19016;SDS011;9641;51.494;6.670;2023-06-22T14:41:35;27.98;;;22.20;;
19016;SDS011;9641;51.494;6.670;2023-06-22T14:44:02;29.65;;;24.35;;
19016;SDS011;9641;51.494;6.670;2023-06-22T14:46:29;28.02;;;22.80;;